Hagatna, GU

1:47 PM ChST on August 19, 2018 (GMT +1000)
Maite | | Change Station
Active Advisory: Flash Flood Watch Active Notice: Flash Flood Watch

Elev 140 ft 13.48 °N, 144.76 °E | Updated 21 seconds ago

Overcast
Overcast
79.9 °F
Feels Like 86 °F
N
4
Wind Variable Wind from SW
Gusts 8.0 mph

Today
High -- | Low -- °F
--% Chance of Precip.
Yesterday
High -- | Low -- °F
Precip. -- in
Pressure 29.74 in
Visibility 6.0 miles
Clouds Few 1100 ft
Scattered Clouds 1800 ft
Overcast 5500 ft
Heat Index 86 °F
Dew Point 78 °F
Humidity 93%
Rainfall 0.45 in
Snow Depth Not available.
6:08 AM 6:40 PM
First Quarter, 58% visible
METAR PGUM 190254Z 25013KT 6SM -RA BR FEW011 SCT018 OVC055 26/26 A2976 RMK AO2 PK WND 25027/0220 RAB30 SLP069 P0001 60009 T02610261 58013
Pressure 29.74 in
Visibility 6.0 miles
Clouds Few 1100 ft
Scattered Clouds 1800 ft
Overcast 5500 ft
Heat Index 86 °F
Dew Point 78 °F
Humidity 93%
Rainfall 0.45 in
Snow Depth Not available.
6:08 AM 6:40 PM
First Quarter, 58% visible
METAR PGUM 190254Z 25013KT 6SM -RA BR FEW011 SCT018 OVC055 26/26 A2976 RMK AO2 PK WND 25027/0220 RAB30 SLP069 P0001 60009 T02610261 58013

Get Your Daily Forecast Email!

Thanks for signing up!

Be on the lookout for a verification email in your inbox.

You'll start receiving severe weather alerts in your inbox..

×

10-Day Weather Forecast

Almanac

Astronomy

Aug. 19, 2018 Rise Set
Actual Time
Civil Twilight
Nautical Twilight
Astronomical Twilight
Moon
Length of Visible Light
Length of Day
Tomorrow will be .
, % of the Moon is Illuminated

Today's Extremes

State Highs State Lows

Community

WunderPhotos

Category 6

Welcome to Category 6. This is the collective home for Weather Underground's featured writeups by Dr. Jeff Masters (right), Bob Henson (left), Chris Burt, and other regular contributors.

Nearby

Air Quality

  Air Quality AQ Index Pollutant
Not available.

Snow Depth

Station Depth Elevation

Earthquake Activity

City Distance Mag. Time & Date
Minimum magnitude displayed is 2.5.

Coastal Water Temperatures

Place Temperature

Stations

Nearby Weather Stations

Station Location Temp. Windchill Dew Point Humidity Wind Precip. Elev Updated Type
                   

Watches & Warnings

Flash Flood Watch
Issued: 1:33 PM GMT Aug. 19, 2018 – National Weather Service

... Flash Flood Watch remains in effect through Monday afternoon...

The Flash Flood Watch continues for

* the islands of Guam, Rota, Tinian and Saipan.

* Through Monday afternoon

* heavy rain will train over the islands as a moist monsoon flow
into Tropical Storm Cimaron continues. Rainfall of 4 to 8
inches with locally heavier amounts are possible through
Monday evening.

Precautionary/preparedness actions...

A Flash Flood Watch means that conditions may develop that lead
to dangerous flash flooding.

You should monitor the latest forecasts and be prepared to take
action should flash flood warnings be issued.



Stanko/Simpson